Карточка аэропорта UNOO

Внимание!
Информация на этой странице в стадии наполнения.
Если вы не увидели какой-то информации, или заметили неточность - пожалуйста сообщите нам!
Спасибо!
Команда RU-STAFF
Название аэропортаЦентральный
Название аэропорта (англ.)Tsentralny
Превышение312 ft. (95.1 m.)
Координаты54°58.02', 73°18.6'
Высота перехода900m
Эшелон переходаQFE>=733:FL50; QFE<733:FL60;
Коды ответчика5440-5457
Зона ОрВДНовосибирск РПИ (UNNT)
Данные METARUNOO 210400Z 27003MPS 9999 OVC007 09/08 Q1010 R25/CLRD60 NOSIG RMK QFE749
Проноз погоды (TAF)UNOO 210150Z 2103/2203 34003G08MPS 8000 BKN004 BKN030CB TEMPO 2103/2109 1000 SHRA BR VV003 BECMG 2104/2106 27003G10MPS BECMG 2113/2115 19003MPS
NOTAMshow/hide NOTAM
AWOS   TABLE

Информация о ВПП

ВПП Длина ВПП (м.) Покрытие Курс ВПП Частота ILS
072501Асфальтобетон65108.3
252501Асфальтобетон245110.1

Диспетчерские позиции

Позывной Наименование органа УВД Частота
UNOO_GNDОмск-Руление121.700
UNOO_TWRОмск-Старт119.000
UNOO_APPОмск-Подход131.200
UNOO_R_APPОмск-Круг119.050



Спутниковое изображение